»·PEaware :: VRD690 KDAL-KSTL

VRD690 :: KDAL-KSTL

FLIGHT INFORMATION

Flight Status: Arrived
Operator:
Virgin America
More flights by this operator :: More flights under this callsign
Pilot: Drew L. (13237)
Aircraft: AIRBUS A320
(A320)
More flights by this aircraft type
Origin: KDAL Dallas Love
United States
Destination: KSTL Lambert-St Louis Intl
United States
More flights between these airports :: More routes between these airports
Route: SWTSR3 MLC SGF KAYLA3
File this flight plan on PilotEdge
Remarks:
Altitude:
(Current/Filed)
35,000ft
Speed:
(Current/Filed)
455kts
Departed: 07-Jan-18 04:44 PM
Arrived: 07-Jan-18 06:02 PM
Distance/Time
Traveled:
474nm/1:18
Distance/Time
To Go:
Arrived

Flight Plot

Page will automatically refresh every two minutes.

Flight plan parsing failed; only flown route is shown


Map Options




Map Legend


Flown Route
Filed Route
Departure Airport
Arrival Airport
Navaid (VOR, NDB)
Fix

Horizontal Profiles

Position Reports

Time Latitude Longitude Heading Altitude Ground
Speed
07-Jan-18 16:25 32.845568 -96.848206 0 495ft 0kts
07-Jan-18 16:26 32.845568 -96.848206 0 495ft 0kts
07-Jan-18 16:27 32.845568 -96.848206 0 495ft 0kts
07-Jan-18 16:28 32.845568 -96.848206 0 495ft 0kts
07-Jan-18 16:29 32.845568 -96.848206 0 495ft 0kts
07-Jan-18 16:30 32.845568 -96.848206 0 495ft 0kts
07-Jan-18 16:31 32.845568 -96.848206 0 495ft 0kts
07-Jan-18 16:32 32.845568 -96.848206 0 495ft 0kts
07-Jan-18 16:33 32.845568 -96.848206 0 495ft 0kts
07-Jan-18 16:34 32.845568 -96.848206 0 495ft 0kts
07-Jan-18 16:35 32.845568 -96.848206 0 495ft 0kts
07-Jan-18 16:36 32.845568 -96.848206 0 495ft 0kts
07-Jan-18 16:37 32.845568 -96.848206 0 495ft 0kts
07-Jan-18 16:38 32.845568 -96.848206 0 495ft 0kts
07-Jan-18 16:39 32.845568 -96.848206 0 495ft 0kts
07-Jan-18 16:40 32.845568 -96.848206 0 495ft 0kts
07-Jan-18 16:41 32.845131 -96.848221 27 495ft 2kts
07-Jan-18 16:42 32.844975 -96.848661 91 495ft 0kts
07-Jan-18 16:43 32.844975 -96.848661 91 495ft 0kts
07-Jan-18 16:44 32.844973 -96.848572 91 495ft 1kts
07-Jan-18 16:45 32.847010 -96.847537 308 495ft 22kts
07-Jan-18 16:46 32.851718 -96.853373 316 495ft 23kts
07-Jan-18 16:47 32.845939 -96.854696 184 495ft 20kts
07-Jan-18 16:48 32.849229 -96.859201 315 495ft 38kts
07-Jan-18 16:49 32.850656 -96.862690 137 495ft 0kts
07-Jan-18 16:50 32.832294 -96.841100 135 1353ft 193kts
07-Jan-18 16:51 32.791364 -96.790354 136 4746ft 243kts
07-Jan-18 16:52 32.740077 -96.727972 139 7405ft 276kts
07-Jan-18 16:53 32.686680 -96.660315 116 10181ft 302kts
07-Jan-18 16:54 32.692607 -96.550874 54 11383ft 377kts
07-Jan-18 16:55 32.778369 -96.501263 12 13243ft 381kts
07-Jan-18 16:56 32.876628 -96.517773 330 15173ft 368kts
07-Jan-18 16:57 32.969631 -96.567186 329 17002ft 376kts
07-Jan-18 16:58 33.065302 -96.617871 330 18565ft 385kts
07-Jan-18 16:59 33.163701 -96.670093 330 19984ft 394kts
07-Jan-18 17:00 33.264182 -96.723553 330 21342ft 400kts
07-Jan-18 17:01 33.366349 -96.778055 330 22555ft 407kts
07-Jan-18 17:02 33.477822 -96.801792 11 23598ft 441kts
07-Jan-18 17:03 33.589160 -96.734454 24 24630ft 454kts
07-Jan-18 17:04 33.699761 -96.663325 23 25552ft 460kts
07-Jan-18 17:05 33.793960 -96.602618 23 26282ft 464kts
07-Jan-18 17:06 33.926830 -96.516719 23 27225ft 470kts
07-Jan-18 17:07 34.022684 -96.454559 23 27851ft 474kts
07-Jan-18 17:08 34.147777 -96.359950 29 28603ft 482kts
07-Jan-18 17:09 34.235722 -96.288218 30 29066ft 485kts
07-Jan-18 17:10 34.347583 -96.196701 30 29615ft 488kts
07-Jan-18 17:11 34.478351 -96.089325 30 30398ft 487kts
07-Jan-18 17:12 34.571474 -96.012612 30 30963ft 486kts
07-Jan-18 17:13 34.682985 -95.920469 29 31612ft 486kts
07-Jan-18 17:14 34.812687 -95.812913 29 32337ft 485kts
07-Jan-18 17:15 34.902971 -95.732138 33 32846ft 485kts
07-Jan-18 17:16 35.007734 -95.633615 33 33911ft 471kts
07-Jan-18 17:17 35.108848 -95.538234 33 34511ft 468kts
07-Jan-18 17:18 35.210425 -95.442090 33 34922ft 468kts
07-Jan-18 17:19 35.310854 -95.346726 34 35095ft 465kts
07-Jan-18 17:20 35.412833 -95.249580 34 35092ft 466kts
07-Jan-18 17:21 35.514824 -95.152093 34 35098ft 466kts
07-Jan-18 17:22 35.616707 -95.054389 34 35096ft 466kts
07-Jan-18 17:23 35.718571 -94.956383 34 35045ft 469kts
07-Jan-18 17:24 35.822123 -94.856420 34 35023ft 478kts
07-Jan-18 17:25 35.927616 -94.754222 34 35041ft 491kts
07-Jan-18 17:26 36.035803 -94.649041 34 35127ft 497kts
07-Jan-18 17:27 36.142180 -94.545248 34 35120ft 498kts
07-Jan-18 17:28 36.250161 -94.439516 34 35111ft 496kts
07-Jan-18 17:29 36.357373 -94.334161 35 35067ft 495kts
07-Jan-18 17:30 36.464166 -94.228834 35 35041ft 493kts
07-Jan-18 17:31 36.571215 -94.122875 35 35037ft 493kts
07-Jan-18 17:32 36.678120 -94.016667 35 35045ft 493kts
07-Jan-18 17:33 36.785110 -93.909989 35 35057ft 493kts
07-Jan-18 17:34 36.890956 -93.804060 35 35068ft 493kts
07-Jan-18 17:35 36.997399 -93.697142 34 35078ft 492kts
07-Jan-18 17:36 37.102534 -93.591141 34 35124ft 485kts
07-Jan-18 17:37 37.205424 -93.487037 34 35080ft 478kts
07-Jan-18 17:38 37.307753 -93.383130 34 35013ft 474kts
07-Jan-18 17:39 37.406554 -93.276762 39 35010ft 476kts
07-Jan-18 17:40 37.503173 -93.163615 39 35025ft 476kts
07-Jan-18 17:41 37.600391 -93.050464 38 35043ft 479kts
07-Jan-18 17:42 37.694960 -92.939880 39 35039ft 488kts
07-Jan-18 17:43 37.795524 -92.822016 39 35081ft 500kts
07-Jan-18 17:44 37.897803 -92.700574 44 35159ft 509kts
07-Jan-18 17:45 37.980172 -92.554431 53 35171ft 513kts
07-Jan-18 17:46 38.060397 -92.405465 53 35174ft 511kts
07-Jan-18 17:47 38.137796 -92.261156 54 34563ft 513kts
07-Jan-18 17:48 38.217865 -92.111183 54 31888ft 511kts
07-Jan-18 17:49 38.296455 -91.963305 54 29220ft 507kts
07-Jan-18 17:50 38.372345 -91.819849 54 27742ft 475kts
07-Jan-18 17:51 38.444394 -91.682859 54 25355ft 455kts
07-Jan-18 17:52 38.512201 -91.553413 54 22010ft 431kts
07-Jan-18 17:53 38.576585 -91.430029 54 18714ft 407kts
07-Jan-18 17:54 38.637162 -91.314254 55 15502ft 386kts
07-Jan-18 17:55 38.692273 -91.202326 75 12336ft 365kts
07-Jan-18 17:56 38.704516 -91.082147 62 10257ft 321kts
07-Jan-18 17:57 38.747029 -90.987981 61 8503ft 286kts
07-Jan-18 17:58 38.785574 -90.902664 61 7339ft 277kts
07-Jan-18 17:59 38.821902 -90.821229 62 6187ft 245kts
07-Jan-18 18:00 38.842347 -90.744425 91 5018ft 214kts
07-Jan-18 18:01 38.844239 -90.674468 90 3732ft 189kts
07-Jan-18 18:02 38.844771 -90.611936 102 3199ft 168kts
07-Jan-18 18:03 38.835295 -90.553610 104 3011ft 166kts
07-Jan-18 18:04 38.814787 -90.502378 124 2874ft 162kts
07-Jan-18 18:05 38.793065 -90.458445 124 2085ft 133kts
07-Jan-18 18:06 38.774107 -90.420067 124 1417ft 129kts
07-Jan-18 18:07 38.756014 -90.383363 124 752ft 126kts
07-Jan-18 18:08 38.743578 -90.358224 122 613ft 24kts
07-Jan-18 18:09 38.742013 -90.359316 293 613ft 1kts
07-Jan-18 18:10 38.741515 -90.360218 210 613ft 0kts

Navigation Log

Ident Type
Flight plan parsing failed, navigation log unavailable